sensor_id;sensor_type;location;lat;lon;timestamp;P1;durP1;ratioP1;P2;durP2;ratioP2
8044;SDS011;4065;48.754;9.982;2023-08-08T00:00:38;4.72;;;3.40;;
8044;SDS011;4065;48.754;9.982;2023-08-08T00:04:04;3.63;;;3.10;;
8044;SDS011;4065;48.754;9.982;2023-08-08T00:07:38;3.88;;;2.70;;
8044;SDS011;4065;48.754;9.982;2023-08-08T00:11:24;3.20;;;2.90;;
8044;SDS011;4065;48.754;9.982;2023-08-08T00:15:06;4.30;;;3.00;;
8044;SDS011;4065;48.754;9.982;2023-08-08T00:18:44;3.40;;;3.10;;
8044;SDS011;4065;48.754;9.982;2023-08-08T00:22:39;3.88;;;3.20;;
8044;SDS011;4065;48.754;9.982;2023-08-08T00:26:12;3.80;;;3.33;;
8044;SDS011;4065;48.754;9.982;2023-08-08T00:29:49;3.47;;;3.10;;
8044;SDS011;4065;48.754;9.982;2023-08-08T00:33:15;5.40;;;3.55;;
8044;SDS011;4065;48.754;9.982;2023-08-08T00:36:50;5.30;;;3.63;;
8044;SDS011;4065;48.754;9.982;2023-08-08T00:40:59;5.25;;;3.17;;
8044;SDS011;4065;48.754;9.982;2023-08-08T00:44:27;3.30;;;3.00;;
8044;SDS011;4065;48.754;9.982;2023-08-08T00:48:08;3.45;;;3.15;;
8044;SDS011;4065;48.754;9.982;2023-08-08T00:51:34;4.47;;;2.80;;
8044;SDS011;4065;48.754;9.982;2023-08-08T00:54:57;4.03;;;2.88;;
8044;SDS011;4065;48.754;9.982;2023-08-08T00:58:30;3.60;;;3.30;;
8044;SDS011;4065;48.754;9.982;2023-08-08T01:01:54;3.65;;;2.97;;
8044;SDS011;4065;48.754;9.982;2023-08-08T01:05:20;2.95;;;2.67;;
8044;SDS011;4065;48.754;9.982;2023-08-08T01:08:53;3.08;;;2.78;;
8044;SDS011;4065;48.754;9.982;2023-08-08T01:12:27;3.25;;;2.95;;
8044;SDS011;4065;48.754;9.982;2023-08-08T01:16:01;6.10;;;3.00;;
8044;SDS011;4065;48.754;9.982;2023-08-08T01:19:26;4.40;;;3.25;;
8044;SDS011;4065;48.754;9.982;2023-08-08T01:22:55;3.40;;;3.10;;
8044;SDS011;4065;48.754;9.982;2023-08-08T01:26:28;3.88;;;3.40;;
8044;SDS011;4065;48.754;9.982;2023-08-08T01:29:57;3.50;;;2.95;;
8044;SDS011;4065;48.754;9.982;2023-08-08T01:33:29;4.22;;;2.90;;
8044;SDS011;4065;48.754;9.982;2023-08-08T01:36:58;5.97;;;3.53;;
8044;SDS011;4065;48.754;9.982;2023-08-08T01:40:24;3.08;;;2.88;;
8044;SDS011;4065;48.754;9.982;2023-08-08T01:43:57;4.78;;;3.05;;
8044;SDS011;4065;48.754;9.982;2023-08-08T01:47:56;3.45;;;3.15;;
8044;SDS011;4065;48.754;9.982;2023-08-08T01:51:53;3.47;;;3.05;;
8044;SDS011;4065;48.754;9.982;2023-08-08T01:56:01;4.97;;;3.22;;
8044;SDS011;4065;48.754;9.982;2023-08-08T01:59:50;3.75;;;3.25;;
8044;SDS011;4065;48.754;9.982;2023-08-08T02:03:36;4.20;;;3.17;;
8044;SDS011;4065;48.754;9.982;2023-08-08T02:07:17;3.40;;;3.10;;
8044;SDS011;4065;48.754;9.982;2023-08-08T02:11:11;3.80;;;3.40;;
8044;SDS011;4065;48.754;9.982;2023-08-08T02:15:10;4.25;;;3.55;;
8044;SDS011;4065;48.754;9.982;2023-08-08T02:19:07;3.83;;;3.30;;
8044;SDS011;4065;48.754;9.982;2023-08-08T02:22:50;3.55;;;2.97;;
8044;SDS011;4065;48.754;9.982;2023-08-08T02:27:06;5.22;;;3.10;;
8044;SDS011;4065;48.754;9.982;2023-08-08T02:30:52;3.75;;;3.38;;
8044;SDS011;4065;48.754;9.982;2023-08-08T02:34:35;3.95;;;3.22;;
8044;SDS011;4065;48.754;9.982;2023-08-08T02:38:10;3.50;;;3.20;;
8044;SDS011;4065;48.754;9.982;2023-08-08T02:42:09;4.15;;;2.78;;
8044;SDS011;4065;48.754;9.982;2023-08-08T02:45:47;3.47;;;2.80;;
8044;SDS011;4065;48.754;9.982;2023-08-08T02:49:29;5.05;;;3.03;;
8044;SDS011;4065;48.754;9.982;2023-08-08T02:53:13;2.92;;;2.70;;
8044;SDS011;4065;48.754;9.982;2023-08-08T03:04:18;3.30;;;3.00;;
8044;SDS011;4065;48.754;9.982;2023-08-08T03:08:03;3.42;;;3.13;;
8044;SDS011;4065;48.754;9.982;2023-08-08T03:11:44;4.72;;;3.17;;
8044;SDS011;4065;48.754;9.982;2023-08-08T03:15:23;3.30;;;2.97;;
8044;SDS011;4065;48.754;9.982;2023-08-08T03:18:55;3.42;;;3.00;;
8044;SDS011;4065;48.754;9.982;2023-08-08T03:26:37;3.00;;;2.80;;
8044;SDS011;4065;48.754;9.982;2023-08-08T03:30:12;5.32;;;3.00;;
8044;SDS011;4065;48.754;9.982;2023-08-08T03:34:09;3.63;;;3.33;;
8044;SDS011;4065;48.754;9.982;2023-08-08T03:38:05;3.47;;;2.88;;
8044;SDS011;4065;48.754;9.982;2023-08-08T03:41:47;3.00;;;2.80;;
8044;SDS011;4065;48.754;9.982;2023-08-08T03:45:23;5.25;;;2.80;;
8044;SDS011;4065;48.754;9.982;2023-08-08T03:48:55;3.00;;;2.80;;
8044;SDS011;4065;48.754;9.982;2023-08-08T03:52:42;4.30;;;2.80;;
8044;SDS011;4065;48.754;9.982;2023-08-08T03:56:20;3.70;;;2.80;;
8044;SDS011;4065;48.754;9.982;2023-08-08T04:00:02;3.35;;;3.05;;
8044;SDS011;4065;48.754;9.982;2023-08-08T04:03:59;5.22;;;3.00;;
8044;SDS011;4065;48.754;9.982;2023-08-08T04:08:01;3.38;;;3.08;;
8044;SDS011;4065;48.754;9.982;2023-08-08T04:11:39;4.15;;;2.80;;
8044;SDS011;4065;48.754;9.982;2023-08-08T04:15:17;4.72;;;3.42;;
8044;SDS011;4065;48.754;9.982;2023-08-08T04:22:34;3.95;;;2.90;;
8044;SDS011;4065;48.754;9.982;2023-08-08T04:26:06;3.53;;;2.95;;
8044;SDS011;4065;48.754;9.982;2023-08-08T04:29:33;3.17;;;2.95;;
8044;SDS011;4065;48.754;9.982;2023-08-08T04:33:04;3.25;;;2.95;;
8044;SDS011;4065;48.754;9.982;2023-08-08T04:36:46;3.80;;;3.50;;
8044;SDS011;4065;48.754;9.982;2023-08-08T04:40:24;4.30;;;3.70;;
8044;SDS011;4065;48.754;9.982;2023-08-08T04:48:15;4.68;;;3.63;;
8044;SDS011;4065;48.754;9.982;2023-08-08T04:52:25;3.33;;;3.03;;
8044;SDS011;4065;48.754;9.982;2023-08-08T04:56:33;2.75;;;2.50;;
8044;SDS011;4065;48.754;9.982;2023-08-08T05:00:36;4.22;;;2.90;;
8044;SDS011;4065;48.754;9.982;2023-08-08T05:08:40;3.42;;;2.70;;
8044;SDS011;4065;48.754;9.982;2023-08-08T05:12:58;7.20;;;4.20;;
8044;SDS011;4065;48.754;9.982;2023-08-08T05:16:31;5.95;;;4.35;;
8044;SDS011;4065;48.754;9.982;2023-08-08T05:20:09;5.88;;;3.35;;
8044;SDS011;4065;48.754;9.982;2023-08-08T05:23:53;4.35;;;3.03;;
8044;SDS011;4065;48.754;9.982;2023-08-08T05:28:00;3.40;;;3.05;;
8044;SDS011;4065;48.754;9.982;2023-08-08T05:32:10;3.97;;;2.80;;
8044;SDS011;4065;48.754;9.982;2023-08-08T05:40:21;3.13;;;2.90;;
8044;SDS011;4065;48.754;9.982;2023-08-08T05:43:58;3.88;;;3.00;;
8044;SDS011;4065;48.754;9.982;2023-08-08T05:47:51;5.68;;;4.75;;
8044;SDS011;4065;48.754;9.982;2023-08-08T05:51:16;8.80;;;8.00;;
8044;SDS011;4065;48.754;9.982;2023-08-08T05:54:42;4.20;;;3.10;;
8044;SDS011;4065;48.754;9.982;2023-08-08T06:02:00;3.60;;;3.20;;
8044;SDS011;4065;48.754;9.982;2023-08-08T06:05:38;4.35;;;3.10;;
8044;SDS011;4065;48.754;9.982;2023-08-08T06:09:21;5.68;;;3.00;;
8044;SDS011;4065;48.754;9.982;2023-08-08T06:13:17;4.13;;;2.80;;
8044;SDS011;4065;48.754;9.982;2023-08-08T06:33:57;2.92;;;2.60;;
8044;SDS011;4065;48.754;9.982;2023-08-08T06:42:10;3.10;;;2.47;;
8044;SDS011;4065;48.754;9.982;2023-08-08T06:46:15;4.03;;;3.03;;
8044;SDS011;4065;48.754;9.982;2023-08-08T06:50:06;4.68;;;2.50;;
8044;SDS011;4065;48.754;9.982;2023-08-08T06:53:29;3.97;;;3.00;;
8044;SDS011;4065;48.754;9.982;2023-08-08T06:56:53;3.63;;;2.70;;
8044;SDS011;4065;48.754;9.982;2023-08-08T07:00:22;3.30;;;2.53;;
8044;SDS011;4065;48.754;9.982;2023-08-08T07:03:44;2.60;;;2.40;;
8044;SDS011;4065;48.754;9.982;2023-08-08T07:07:07;3.28;;;2.40;;
8044;SDS011;4065;48.754;9.982;2023-08-08T07:10:29;3.70;;;2.70;;
8044;SDS011;4065;48.754;9.982;2023-08-08T07:13:54;2.60;;;2.20;;
8044;SDS011;4065;48.754;9.982;2023-08-08T07:17:18;3.15;;;2.40;;
8044;SDS011;4065;48.754;9.982;2023-08-08T07:20:40;3.47;;;2.72;;
8044;SDS011;4065;48.754;9.982;2023-08-08T07:24:02;3.65;;;2.63;;
8044;SDS011;4065;48.754;9.982;2023-08-08T07:27:25;2.92;;;2.40;;
8044;SDS011;4065;48.754;9.982;2023-08-08T07:30:49;2.85;;;2.33;;
8044;SDS011;4065;48.754;9.982;2023-08-08T07:34:11;3.33;;;2.75;;
8044;SDS011;4065;48.754;9.982;2023-08-08T07:37:35;3.67;;;2.67;;
8044;SDS011;4065;48.754;9.982;2023-08-08T07:40:57;3.28;;;2.47;;
8044;SDS011;4065;48.754;9.982;2023-08-08T07:44:19;3.63;;;2.55;;
8044;SDS011;4065;48.754;9.982;2023-08-08T07:47:45;4.88;;;2.50;;
8044;SDS011;4065;48.754;9.982;2023-08-08T07:51:07;5.00;;;3.47;;
8044;SDS011;4065;48.754;9.982;2023-08-08T07:54:29;4.47;;;3.05;;
8044;SDS011;4065;48.754;9.982;2023-08-08T07:57:52;3.45;;;3.15;;
8044;SDS011;4065;48.754;9.982;2023-08-08T08:01:18;3.63;;;3.03;;
8044;SDS011;4065;48.754;9.982;2023-08-08T08:04:42;5.47;;;3.17;;
8044;SDS011;4065;48.754;9.982;2023-08-08T08:08:04;5.38;;;3.10;;
8044;SDS011;4065;48.754;9.982;2023-08-08T08:11:26;3.47;;;2.88;;
8044;SDS011;4065;48.754;9.982;2023-08-08T08:14:50;3.33;;;2.80;;
8044;SDS011;4065;48.754;9.982;2023-08-08T08:18:12;3.35;;;2.67;;
8044;SDS011;4065;48.754;9.982;2023-08-08T08:21:39;4.32;;;2.90;;
8044;SDS011;4065;48.754;9.982;2023-08-08T08:25:01;3.95;;;2.95;;
8044;SDS011;4065;48.754;9.982;2023-08-08T08:28:22;3.70;;;2.80;;
8044;SDS011;4065;48.754;9.982;2023-08-08T08:31:44;2.88;;;2.58;;
8044;SDS011;4065;48.754;9.982;2023-08-08T08:35:07;3.65;;;2.60;;
8044;SDS011;4065;48.754;9.982;2023-08-08T08:38:31;4.78;;;2.65;;
8044;SDS011;4065;48.754;9.982;2023-08-08T08:41:54;3.33;;;2.53;;
8044;SDS011;4065;48.754;9.982;2023-08-08T08:45:23;4.78;;;2.80;;
8044;SDS011;4065;48.754;9.982;2023-08-08T08:48:45;4.35;;;2.83;;
8044;SDS011;4065;48.754;9.982;2023-08-08T08:52:07;2.72;;;2.35;;
8044;SDS011;4065;48.754;9.982;2023-08-08T08:55:31;4.47;;;2.42;;
8044;SDS011;4065;48.754;9.982;2023-08-08T08:58:56;4.47;;;2.70;;
8044;SDS011;4065;48.754;9.982;2023-08-08T09:02:18;3.20;;;2.60;;
8044;SDS011;4065;48.754;9.982;2023-08-08T09:05:40;3.92;;;2.50;;
8044;SDS011;4065;48.754;9.982;2023-08-08T09:09:03;2.92;;;2.50;;
8044;SDS011;4065;48.754;9.982;2023-08-08T09:12:26;4.00;;;2.85;;
8044;SDS011;4065;48.754;9.982;2023-08-08T09:15:50;4.03;;;2.60;;
8044;SDS011;4065;48.754;9.982;2023-08-08T09:19:15;5.10;;;2.80;;
8044;SDS011;4065;48.754;9.982;2023-08-08T09:22:38;4.07;;;2.38;;
8044;SDS011;4065;48.754;9.982;2023-08-08T09:26:00;5.30;;;2.60;;
8044;SDS011;4065;48.754;9.982;2023-08-08T09:29:23;4.03;;;2.60;;
8044;SDS011;4065;48.754;9.982;2023-08-08T09:32:45;3.00;;;2.40;;
8044;SDS011;4065;48.754;9.982;2023-08-08T09:36:13;3.58;;;2.40;;
8044;SDS011;4065;48.754;9.982;2023-08-08T09:39:36;5.00;;;2.70;;
8044;SDS011;4065;48.754;9.982;2023-08-08T09:42:58;3.65;;;2.63;;
8044;SDS011;4065;48.754;9.982;2023-08-08T09:46:21;4.13;;;2.70;;
8044;SDS011;4065;48.754;9.982;2023-08-08T09:49:44;3.45;;;2.45;;
8044;SDS011;4065;48.754;9.982;2023-08-08T09:53:07;4.68;;;3.47;;
8044;SDS011;4065;48.754;9.982;2023-08-08T09:56:31;3.30;;;2.95;;
8044;SDS011;4065;48.754;9.982;2023-08-08T09:59:54;3.10;;;2.80;;
8044;SDS011;4065;48.754;9.982;2023-08-08T10:03:19;3.03;;;2.72;;
8044;SDS011;4065;48.754;9.982;2023-08-08T10:06:44;5.28;;;2.50;;
8044;SDS011;4065;48.754;9.982;2023-08-08T10:10:06;6.32;;;2.80;;
8044;SDS011;4065;48.754;9.982;2023-08-08T10:13:29;2.85;;;2.45;;
8044;SDS011;4065;48.754;9.982;2023-08-08T10:16:51;4.43;;;2.70;;
8044;SDS011;4065;48.754;9.982;2023-08-08T10:20:19;4.57;;;3.00;;
8044;SDS011;4065;48.754;9.982;2023-08-08T10:23:41;4.55;;;2.30;;
8044;SDS011;4065;48.754;9.982;2023-08-08T10:27:03;2.97;;;2.33;;
8044;SDS011;4065;48.754;9.982;2023-08-08T10:30:29;2.70;;;2.30;;
8044;SDS011;4065;48.754;9.982;2023-08-08T10:34:00;3.65;;;2.47;;
8044;SDS011;4065;48.754;9.982;2023-08-08T10:37:24;8.68;;;2.22;;
8044;SDS011;4065;48.754;9.982;2023-08-08T10:40:46;3.88;;;2.00;;
8044;SDS011;4065;48.754;9.982;2023-08-08T10:44:08;3.47;;;2.47;;
8044;SDS011;4065;48.754;9.982;2023-08-08T10:47:30;2.83;;;2.05;;
8044;SDS011;4065;48.754;9.982;2023-08-08T10:50:54;3.05;;;2.30;;
8044;SDS011;4065;48.754;9.982;2023-08-08T10:54:23;7.82;;;2.65;;
8044;SDS011;4065;48.754;9.982;2023-08-08T10:57:53;5.57;;;2.30;;
8044;SDS011;4065;48.754;9.982;2023-08-08T11:01:18;2.78;;;2.20;;
8044;SDS011;4065;48.754;9.982;2023-08-08T11:04:40;5.97;;;2.08;;
8044;SDS011;4065;48.754;9.982;2023-08-08T11:08:03;2.42;;;2.00;;
8044;SDS011;4065;48.754;9.982;2023-08-08T11:11:27;3.85;;;2.03;;
8044;SDS011;4065;48.754;9.982;2023-08-08T11:14:51;2.60;;;1.90;;
8044;SDS011;4065;48.754;9.982;2023-08-08T11:18:13;2.72;;;2.10;;
8044;SDS011;4065;48.754;9.982;2023-08-08T11:21:35;4.38;;;1.92;;
8044;SDS011;4065;48.754;9.982;2023-08-08T11:24:58;2.95;;;2.10;;
8044;SDS011;4065;48.754;9.982;2023-08-08T11:28:25;3.17;;;2.00;;
8044;SDS011;4065;48.754;9.982;2023-08-08T11:31:47;2.15;;;1.95;;
8044;SDS011;4065;48.754;9.982;2023-08-08T11:35:09;3.85;;;1.90;;
8044;SDS011;4065;48.754;9.982;2023-08-08T11:38:31;2.78;;;1.90;;
8044;SDS011;4065;48.754;9.982;2023-08-08T11:41:53;2.40;;;2.05;;
8044;SDS011;4065;48.754;9.982;2023-08-08T11:45:17;2.22;;;1.90;;
8044;SDS011;4065;48.754;9.982;2023-08-08T11:48:39;3.55;;;1.92;;
8044;SDS011;4065;48.754;9.982;2023-08-08T11:52:02;2.83;;;2.10;;
8044;SDS011;4065;48.754;9.982;2023-08-08T11:55:27;3.00;;;2.28;;
8044;SDS011;4065;48.754;9.982;2023-08-08T11:58:49;2.05;;;1.85;;
8044;SDS011;4065;48.754;9.982;2023-08-08T12:02:13;3.50;;;2.15;;
8044;SDS011;4065;48.754;9.982;2023-08-08T12:05:36;3.55;;;2.20;;
8044;SDS011;4065;48.754;9.982;2023-08-08T12:09:00;3.92;;;2.10;;
8044;SDS011;4065;48.754;9.982;2023-08-08T12:12:23;4.40;;;2.15;;
8044;SDS011;4065;48.754;9.982;2023-08-08T12:15:47;3.80;;;2.28;;
8044;SDS011;4065;48.754;9.982;2023-08-08T12:19:10;3.90;;;2.10;;
8044;SDS011;4065;48.754;9.982;2023-08-08T12:22:34;2.58;;;2.00;;
8044;SDS011;4065;48.754;9.982;2023-08-08T12:25:57;3.50;;;2.10;;
8044;SDS011;4065;48.754;9.982;2023-08-08T12:29:19;3.13;;;2.00;;
8044;SDS011;4065;48.754;9.982;2023-08-08T12:32:41;3.40;;;2.65;;
8044;SDS011;4065;48.754;9.982;2023-08-08T12:36:04;3.63;;;2.30;;
8044;SDS011;4065;48.754;9.982;2023-08-08T12:39:27;2.80;;;2.30;;
8044;SDS011;4065;48.754;9.982;2023-08-08T12:42:51;2.78;;;1.90;;
8044;SDS011;4065;48.754;9.982;2023-08-08T12:46:13;2.70;;;2.00;;
8044;SDS011;4065;48.754;9.982;2023-08-08T12:49:35;2.13;;;1.80;;
8044;SDS011;4065;48.754;9.982;2023-08-08T12:52:58;2.92;;;2.10;;
8044;SDS011;4065;48.754;9.982;2023-08-08T12:56:20;2.78;;;1.88;;
8044;SDS011;4065;48.754;9.982;2023-08-08T12:59:42;3.35;;;2.10;;
8044;SDS011;4065;48.754;9.982;2023-08-08T13:03:04;3.67;;;2.10;;
8044;SDS011;4065;48.754;9.982;2023-08-08T13:06:29;2.25;;;2.00;;
8044;SDS011;4065;48.754;9.982;2023-08-08T13:09:54;4.15;;;2.28;;
8044;SDS011;4065;48.754;9.982;2023-08-08T13:13:16;2.63;;;2.10;;
8044;SDS011;4065;48.754;9.982;2023-08-08T13:16:38;4.03;;;2.00;;
8044;SDS011;4065;48.754;9.982;2023-08-08T13:20:00;3.42;;;1.88;;
8044;SDS011;4065;48.754;9.982;2023-08-08T13:23:22;2.65;;;1.88;;
8044;SDS011;4065;48.754;9.982;2023-08-08T13:26:47;5.32;;;1.92;;
8044;SDS011;4065;48.754;9.982;2023-08-08T13:30:09;2.97;;;1.95;;
8044;SDS011;4065;48.754;9.982;2023-08-08T13:33:31;2.85;;;1.90;;
8044;SDS011;4065;48.754;9.982;2023-08-08T13:36:54;2.22;;;1.98;;
8044;SDS011;4065;48.754;9.982;2023-08-08T13:40:16;4.18;;;2.15;;
8044;SDS011;4065;48.754;9.982;2023-08-08T13:43:40;2.15;;;1.80;;
8044;SDS011;4065;48.754;9.982;2023-08-08T13:47:01;4.95;;;2.00;;
8044;SDS011;4065;48.754;9.982;2023-08-08T13:50:23;2.13;;;1.70;;
8044;SDS011;4065;48.754;9.982;2023-08-08T13:53:45;3.58;;;1.92;;
8044;SDS011;4065;48.754;9.982;2023-08-08T13:57:09;1.92;;;1.73;;
8044;SDS011;4065;48.754;9.982;2023-08-08T14:00:32;3.83;;;1.98;;
8044;SDS011;4065;48.754;9.982;2023-08-08T14:03:54;2.00;;;1.80;;
8044;SDS011;4065;48.754;9.982;2023-08-08T14:07:16;2.40;;;1.73;;
8044;SDS011;4065;48.754;9.982;2023-08-08T14:10:38;2.58;;;1.90;;
8044;SDS011;4065;48.754;9.982;2023-08-08T14:14:00;3.42;;;1.90;;
8044;SDS011;4065;48.754;9.982;2023-08-08T14:17:23;3.08;;;1.90;;
8044;SDS011;4065;48.754;9.982;2023-08-08T14:20:45;2.40;;;1.85;;
8044;SDS011;4065;48.754;9.982;2023-08-08T14:24:09;2.10;;;1.90;;
8044;SDS011;4065;48.754;9.982;2023-08-08T14:27:31;2.50;;;1.92;;
8044;SDS011;4065;48.754;9.982;2023-08-08T14:30:53;2.42;;;1.98;;
8044;SDS011;4065;48.754;9.982;2023-08-08T14:34:17;3.83;;;2.30;;
8044;SDS011;4065;48.754;9.982;2023-08-08T14:37:39;3.92;;;2.35;;
8044;SDS011;4065;48.754;9.982;2023-08-08T14:41:01;3.47;;;2.08;;
8044;SDS011;4065;48.754;9.982;2023-08-08T14:44:23;2.28;;;1.90;;
8044;SDS011;4065;48.754;9.982;2023-08-08T14:47:45;2.72;;;1.80;;
8044;SDS011;4065;48.754;9.982;2023-08-08T14:51:08;3.47;;;2.17;;
8044;SDS011;4065;48.754;9.982;2023-08-08T14:54:32;2.17;;;1.90;;
8044;SDS011;4065;48.754;9.982;2023-08-08T14:57:57;3.13;;;2.17;;
8044;SDS011;4065;48.754;9.982;2023-08-08T15:01:22;3.55;;;1.90;;
8044;SDS011;4065;48.754;9.982;2023-08-08T15:04:45;2.72;;;2.00;;
8044;SDS011;4065;48.754;9.982;2023-08-08T15:08:09;3.00;;;2.05;;
8044;SDS011;4065;48.754;9.982;2023-08-08T15:11:31;2.40;;;1.73;;
8044;SDS011;4065;48.754;9.982;2023-08-08T15:14:54;4.93;;;2.20;;
8044;SDS011;4065;48.754;9.982;2023-08-08T15:18:23;2.83;;;2.03;;
8044;SDS011;4065;48.754;9.982;2023-08-08T15:21:48;2.30;;;2.08;;
8044;SDS011;4065;48.754;9.982;2023-08-08T15:25:26;3.22;;;2.20;;
8044;SDS011;4065;48.754;9.982;2023-08-08T15:29:05;2.45;;;2.03;;
8044;SDS011;4065;48.754;9.982;2023-08-08T15:33:35;2.83;;;2.10;;
8044;SDS011;4065;48.754;9.982;2023-08-08T15:37:31;3.28;;;2.58;;
8044;SDS011;4065;48.754;9.982;2023-08-08T15:40:59;2.60;;;2.35;;
8044;SDS011;4065;48.754;9.982;2023-08-08T15:44:21;2.85;;;2.00;;
8044;SDS011;4065;48.754;9.982;2023-08-08T15:47:43;2.10;;;1.90;;
8044;SDS011;4065;48.754;9.982;2023-08-08T15:51:04;2.63;;;2.28;;
8044;SDS011;4065;48.754;9.982;2023-08-08T15:54:26;4.35;;;2.25;;
8044;SDS011;4065;48.754;9.982;2023-08-08T15:57:51;2.65;;;2.10;;
8044;SDS011;4065;48.754;9.982;2023-08-08T16:01:13;2.58;;;2.10;;
8044;SDS011;4065;48.754;9.982;2023-08-08T16:04:36;2.22;;;2.00;;
8044;SDS011;4065;48.754;9.982;2023-08-08T16:08:00;3.40;;;2.10;;
8044;SDS011;4065;48.754;9.982;2023-08-08T16:11:22;3.92;;;2.10;;
8044;SDS011;4065;48.754;9.982;2023-08-08T16:14:49;3.22;;;2.35;;
8044;SDS011;4065;48.754;9.982;2023-08-08T16:18:11;2.55;;;2.10;;
8044;SDS011;4065;48.754;9.982;2023-08-08T16:21:33;3.17;;;2.60;;
8044;SDS011;4065;48.754;9.982;2023-08-08T16:24:55;4.07;;;2.25;;
8044;SDS011;4065;48.754;9.982;2023-08-08T16:28:17;2.83;;;2.03;;
8044;SDS011;4065;48.754;9.982;2023-08-08T16:31:40;5.32;;;2.20;;
8044;SDS011;4065;48.754;9.982;2023-08-08T16:35:03;2.72;;;2.28;;
8044;SDS011;4065;48.754;9.982;2023-08-08T16:38:26;2.65;;;2.30;;
8044;SDS011;4065;48.754;9.982;2023-08-08T16:41:56;3.28;;;2.00;;
8044;SDS011;4065;48.754;9.982;2023-08-08T16:45:20;3.05;;;2.00;;
8044;SDS011;4065;48.754;9.982;2023-08-08T16:48:43;3.17;;;2.40;;
8044;SDS011;4065;48.754;9.982;2023-08-08T16:52:05;3.38;;;2.13;;
8044;SDS011;4065;48.754;9.982;2023-08-08T16:55:27;3.58;;;2.17;;
8044;SDS011;4065;48.754;9.982;2023-08-08T16:58:49;5.35;;;2.20;;
8044;SDS011;4065;48.754;9.982;2023-08-08T17:02:11;5.53;;;2.35;;
8044;SDS011;4065;48.754;9.982;2023-08-08T17:05:34;3.58;;;2.10;;
8044;SDS011;4065;48.754;9.982;2023-08-08T17:08:56;4.20;;;2.50;;
8044;SDS011;4065;48.754;9.982;2023-08-08T17:12:18;3.47;;;2.42;;
8044;SDS011;4065;48.754;9.982;2023-08-08T17:15:40;3.90;;;2.40;;
8044;SDS011;4065;48.754;9.982;2023-08-08T17:19:02;2.40;;;1.90;;
8044;SDS011;4065;48.754;9.982;2023-08-08T17:22:28;2.38;;;2.17;;
8044;SDS011;4065;48.754;9.982;2023-08-08T17:25:50;2.90;;;2.22;;
8044;SDS011;4065;48.754;9.982;2023-08-08T17:29:12;4.38;;;2.30;;
8044;SDS011;4065;48.754;9.982;2023-08-08T17:32:34;4.82;;;2.10;;
8044;SDS011;4065;48.754;9.982;2023-08-08T17:36:01;3.20;;;2.35;;
8044;SDS011;4065;48.754;9.982;2023-08-08T17:39:25;2.30;;;2.10;;
8044;SDS011;4065;48.754;9.982;2023-08-08T17:42:47;3.58;;;2.50;;
8044;SDS011;4065;48.754;9.982;2023-08-08T17:46:09;3.50;;;2.05;;
8044;SDS011;4065;48.754;9.982;2023-08-08T17:49:31;3.00;;;2.15;;
8044;SDS011;4065;48.754;9.982;2023-08-08T17:52:53;2.70;;;2.20;;
8044;SDS011;4065;48.754;9.982;2023-08-08T17:56:16;2.88;;;2.22;;
8044;SDS011;4065;48.754;9.982;2023-08-08T17:59:38;2.70;;;2.40;;
8044;SDS011;4065;48.754;9.982;2023-08-08T18:03:00;2.83;;;2.38;;
8044;SDS011;4065;48.754;9.982;2023-08-08T18:06:22;5.13;;;2.33;;
8044;SDS011;4065;48.754;9.982;2023-08-08T18:09:44;2.75;;;2.28;;
8044;SDS011;4065;48.754;9.982;2023-08-08T18:13:09;3.03;;;2.60;;
8044;SDS011;4065;48.754;9.982;2023-08-08T18:16:31;3.92;;;2.50;;
8044;SDS011;4065;48.754;9.982;2023-08-08T18:19:53;4.10;;;2.50;;
8044;SDS011;4065;48.754;9.982;2023-08-08T18:23:15;2.72;;;2.20;;
8044;SDS011;4065;48.754;9.982;2023-08-08T18:26:37;3.70;;;2.40;;
8044;SDS011;4065;48.754;9.982;2023-08-08T18:30:00;3.78;;;2.40;;
8044;SDS011;4065;48.754;9.982;2023-08-08T18:33:22;5.18;;;2.60;;
8044;SDS011;4065;48.754;9.982;2023-08-08T18:36:44;4.38;;;2.55;;
8044;SDS011;4065;48.754;9.982;2023-08-08T18:40:06;4.25;;;2.22;;
8044;SDS011;4065;48.754;9.982;2023-08-08T18:43:29;4.82;;;2.47;;
8044;SDS011;4065;48.754;9.982;2023-08-08T18:46:53;2.90;;;2.60;;
8044;SDS011;4065;48.754;9.982;2023-08-08T18:50:14;2.97;;;2.33;;
8044;SDS011;4065;48.754;9.982;2023-08-08T18:53:36;3.88;;;2.65;;
8044;SDS011;4065;48.754;9.982;2023-08-08T18:56:58;5.30;;;2.50;;
8044;SDS011;4065;48.754;9.982;2023-08-08T19:00:20;3.65;;;2.70;;
8044;SDS011;4065;48.754;9.982;2023-08-08T19:03:43;2.78;;;2.40;;
8044;SDS011;4065;48.754;9.982;2023-08-08T19:07:06;3.63;;;2.70;;
8044;SDS011;4065;48.754;9.982;2023-08-08T19:10:28;3.50;;;2.67;;
8044;SDS011;4065;48.754;9.982;2023-08-08T19:13:50;6.22;;;3.20;;
8044;SDS011;4065;48.754;9.982;2023-08-08T19:17:12;3.45;;;3.13;;
8044;SDS011;4065;48.754;9.982;2023-08-08T19:20:35;3.17;;;2.80;;
8044;SDS011;4065;48.754;9.982;2023-08-08T19:23:57;5.22;;;3.10;;
8044;SDS011;4065;48.754;9.982;2023-08-08T19:27:21;3.47;;;2.50;;
8044;SDS011;4065;48.754;9.982;2023-08-08T19:30:43;3.90;;;3.17;;
8044;SDS011;4065;48.754;9.982;2023-08-08T19:34:05;4.95;;;3.22;;
8044;SDS011;4065;48.754;9.982;2023-08-08T19:37:28;3.72;;;3.08;;
8044;SDS011;4065;48.754;9.982;2023-08-08T19:40:51;3.97;;;2.83;;
8044;SDS011;4065;48.754;9.982;2023-08-08T19:44:13;4.13;;;3.40;;
8044;SDS011;4065;48.754;9.982;2023-08-08T19:47:35;3.47;;;2.63;;
8044;SDS011;4065;48.754;9.982;2023-08-08T19:50:57;3.92;;;3.00;;
8044;SDS011;4065;48.754;9.982;2023-08-08T19:54:20;4.32;;;2.97;;
8044;SDS011;4065;48.754;9.982;2023-08-08T19:57:42;4.93;;;3.00;;
8044;SDS011;4065;48.754;9.982;2023-08-08T20:01:04;4.13;;;3.10;;
8044;SDS011;4065;48.754;9.982;2023-08-08T20:04:26;3.22;;;2.92;;
8044;SDS011;4065;48.754;9.982;2023-08-08T20:07:48;3.50;;;3.10;;
8044;SDS011;4065;48.754;9.982;2023-08-08T20:11:11;3.42;;;3.13;;
8044;SDS011;4065;48.754;9.982;2023-08-08T20:14:33;3.60;;;2.90;;
8044;SDS011;4065;48.754;9.982;2023-08-08T20:17:58;4.38;;;3.17;;
8044;SDS011;4065;48.754;9.982;2023-08-08T20:21:20;4.75;;;2.90;;
8044;SDS011;4065;48.754;9.982;2023-08-08T20:24:42;5.03;;;3.00;;
8044;SDS011;4065;48.754;9.982;2023-08-08T20:28:06;4.88;;;3.10;;
8044;SDS011;4065;48.754;9.982;2023-08-08T20:31:28;4.43;;;2.90;;
8044;SDS011;4065;48.754;9.982;2023-08-08T20:34:50;3.03;;;2.70;;
8044;SDS011;4065;48.754;9.982;2023-08-08T20:38:11;3.65;;;3.25;;
8044;SDS011;4065;48.754;9.982;2023-08-08T20:41:33;3.47;;;3.00;;
8044;SDS011;4065;48.754;9.982;2023-08-08T20:44:57;2.97;;;2.72;;
8044;SDS011;4065;48.754;9.982;2023-08-08T20:48:19;4.78;;;3.15;;
8044;SDS011;4065;48.754;9.982;2023-08-08T20:51:41;4.05;;;3.00;;
8044;SDS011;4065;48.754;9.982;2023-08-08T20:55:05;6.57;;;3.13;;
8044;SDS011;4065;48.754;9.982;2023-08-08T20:58:28;4.78;;;3.08;;
8044;SDS011;4065;48.754;9.982;2023-08-08T21:01:52;4.25;;;2.78;;
8044;SDS011;4065;48.754;9.982;2023-08-08T21:05:15;3.97;;;3.42;;
8044;SDS011;4065;48.754;9.982;2023-08-08T21:08:37;3.40;;;3.10;;
8044;SDS011;4065;48.754;9.982;2023-08-08T21:11:59;4.22;;;2.80;;
8044;SDS011;4065;48.754;9.982;2023-08-08T21:15:21;4.25;;;3.72;;
8044;SDS011;4065;48.754;9.982;2023-08-08T21:18:45;4.43;;;3.35;;
8044;SDS011;4065;48.754;9.982;2023-08-08T21:22:07;5.35;;;3.38;;
8044;SDS011;4065;48.754;9.982;2023-08-08T21:25:29;4.40;;;2.83;;
8044;SDS011;4065;48.754;9.982;2023-08-08T21:28:51;3.10;;;2.80;;
8044;SDS011;4065;48.754;9.982;2023-08-08T21:32:14;4.10;;;3.67;;
8044;SDS011;4065;48.754;9.982;2023-08-08T21:35:39;4.57;;;3.20;;
8044;SDS011;4065;48.754;9.982;2023-08-08T21:39:01;3.78;;;3.10;;
8044;SDS011;4065;48.754;9.982;2023-08-08T21:42:24;3.75;;;3.40;;
8044;SDS011;4065;48.754;9.982;2023-08-08T21:45:46;4.45;;;3.13;;
8044;SDS011;4065;48.754;9.982;2023-08-08T21:49:08;3.83;;;2.80;;
8044;SDS011;4065;48.754;9.982;2023-08-08T21:52:31;6.20;;;4.38;;
8044;SDS011;4065;48.754;9.982;2023-08-08T21:55:53;4.18;;;3.30;;
8044;SDS011;4065;48.754;9.982;2023-08-08T21:59:15;3.83;;;3.45;;
8044;SDS011;4065;48.754;9.982;2023-08-08T22:02:36;5.45;;;3.85;;
8044;SDS011;4065;48.754;9.982;2023-08-08T22:05:58;5.25;;;3.70;;
8044;SDS011;4065;48.754;9.982;2023-08-08T22:09:22;5.13;;;3.55;;
8044;SDS011;4065;48.754;9.982;2023-08-08T22:12:44;3.92;;;3.53;;
8044;SDS011;4065;48.754;9.982;2023-08-08T22:16:06;3.90;;;3.38;;
8044;SDS011;4065;48.754;9.982;2023-08-08T22:19:27;3.65;;;3.30;;
8044;SDS011;4065;48.754;9.982;2023-08-08T22:22:49;4.45;;;3.90;;
8044;SDS011;4065;48.754;9.982;2023-08-08T22:26:13;6.38;;;3.50;;